Time;durP1;ratioP1;P1;durP2;ratioP2;P2;SDS_P1;SDS_P2;PMS_P1;PMS_P2;Temp;Humidity;BMP_temperature;BMP_pressure;BME280_temperature;BME280_humidity;BME280_pressure;Samples;Min_cycle;Max_cycle;Signal;HPM_P1;HPM_P2
2021/06/12 00:01:03;;;;;;;4.57;4.47;;;19.60;99.90;;;;;;4950010;29;20465;-70
2021/06/12 00:03:29;;;;;;;5.90;5.60;;;19.60;99.90;;;;;;4954128;28;20804;-70
2021/06/12 00:05:55;;;;;;;6.17;5.67;;;19.60;99.90;;;;;;4939489;28;20488;-70
2021/06/12 00:08:23;;;;;;;5.60;5.30;;;19.60;99.90;;;;;;4935160;28;20850;-70
2021/06/12 00:10:49;;;;;;;5.30;5.00;;;19.60;99.90;;;;;;4936771;29;20469;-70
2021/06/12 00:13:15;;;;;;;5.37;5.07;;;19.50;99.90;;;;;;4934536;29;20532;-70
2021/06/12 00:15:41;;;;;;;5.97;5.67;;;19.50;99.90;;;;;;4948031;29;20488;-70
2021/06/12 00:18:08;;;;;;;5.57;5.27;;;19.50;99.90;;;;;;4942627;28;20883;-70
2021/06/12 00:20:37;;;;;;;5.30;5.10;;;19.40;99.90;;;;;;4935155;28;20954;-68
2021/06/12 00:23:04;;;;;;;5.53;5.10;;;19.30;99.90;;;;;;4941232;29;20548;-68
2021/06/12 00:25:32;;;;;;;4.73;4.43;;;19.30;99.90;;;;;;4933973;29;21002;-68
2021/06/12 00:27:59;;;;;;;5.70;5.40;;;19.20;99.90;;;;;;4942927;29;20457;-67
2021/06/12 00:30:26;;;;;;;5.23;4.93;;;19.20;99.90;;;;;;4953346;28;20527;-67
2021/06/12 00:32:53;;;;;;;5.00;4.70;;;19.20;99.90;;;;;;4946696;28;20461;-67
2021/06/12 00:35:19;;;;;;;4.83;4.63;;;19.20;99.90;;;;;;4934758;29;20482;-67
2021/06/12 00:37:46;;;;;;;4.23;4.03;;;19.10;99.90;;;;;;4940436;29;20457;-67
2021/06/12 00:40:14;;;;;;;4.57;4.37;;;19.10;99.90;;;;;;4955116;28;21019;-67
2021/06/12 00:42:42;;;;;;;3.90;3.70;;;19.10;99.90;;;;;;4937064;28;20477;-66
2021/06/12 00:45:13;;;;;;;4.27;4.07;;;19.00;99.90;;;;;;4938269;29;20493;-66
2021/06/12 00:47:39;;;;;;;4.83;4.17;;;19.00;99.90;;;;;;4955897;29;20464;-66
2021/06/12 00:50:06;;;;;;;5.60;5.20;;;19.00;99.90;;;;;;4957819;28;20519;-66
2021/06/12 00:52:32;;;;;;;4.53;4.30;;;19.00;99.90;;;;;;4940902;28;20490;-67
2021/06/12 00:54:59;;;;;;;4.60;4.40;;;19.00;99.90;;;;;;4938595;29;20493;-66
2021/06/12 00:57:25;;;;;;;3.50;3.40;;;18.90;99.90;;;;;;4952672;29;20464;-67
2021/06/12 00:59:53;;;;;;;4.00;3.80;;;19.00;99.90;;;;;;4957133;28;21015;-67
2021/06/12 01:02:19;;;;;;;4.10;4.00;;;18.90;99.90;;;;;;4957066;28;20488;-67
2021/06/12 01:04:45;;;;;;;4.77;4.47;;;19.00;99.90;;;;;;4957710;28;20859;-67
2021/06/12 01:07:11;;;;;;;5.23;4.33;;;18.90;99.90;;;;;;4957103;28;20472;-67
2021/06/12 01:09:37;;;;;;;4.40;4.10;;;18.90;99.90;;;;;;4948456;28;20871;-68
2021/06/12 01:12:12;;;;;;;4.57;4.30;;;18.90;99.90;;;;;;4937616;28;20489;-68
2021/06/12 01:14:45;;;;;;;4.50;4.30;;;18.90;99.90;;;;;;4945757;29;20827;-67
2021/06/12 01:17:21;;;;;;;4.50;4.27;;;18.90;99.90;;;;;;4957125;28;20469;-67
2021/06/12 01:20:16;;;;;;;6.10;5.70;;;18.80;99.90;;;;;;4947729;28;20567;-67
2021/06/12 01:23:01;;;;;;;5.90;5.40;;;18.80;99.90;;;;;;4941831;28;20477;-67
2021/06/12 01:25:35;;;;;;;5.10;4.70;;;18.80;99.90;;;;;;4955152;28;20477;-67
2021/06/12 01:28:43;;;;;;;5.20;4.80;;;18.80;99.90;;;;;;4952217;28;20457;-67
2021/06/12 01:31:13;;;;;;;4.90;4.70;;;18.80;99.90;;;;;;4932831;29;20481;-68
2021/06/12 01:33:43;;;;;;;5.77;5.27;;;18.80;99.90;;;;;;4936192;28;20481;-67
2021/06/12 01:36:11;;;;;;;4.77;4.50;;;18.80;99.90;;;;;;4953603;29;20977;-67
2021/06/12 01:38:43;;;;;;;4.83;4.53;;;18.80;99.90;;;;;;4956836;28;20945;-67
2021/06/12 01:41:12;;;;;;;4.70;4.50;;;18.80;99.90;;;;;;4956203;28;20466;-67
2021/06/12 01:43:39;;;;;;;4.70;4.50;;;18.80;99.90;;;;;;4956855;28;20762;-67
2021/06/12 01:46:07;;;;;;;4.60;4.33;;;18.80;99.90;;;;;;4953683;28;20493;-67
2021/06/12 01:48:36;;;;;;;4.93;4.53;;;18.70;99.90;;;;;;4937838;29;20497;-67
2021/06/12 01:51:05;;;;;;;4.40;4.10;;;18.70;99.90;;;;;;4938458;29;20554;-66
2021/06/12 01:53:33;;;;;;;4.30;4.20;;;18.70;99.90;;;;;;4955985;28;20464;-67
2021/06/12 01:56:03;;;;;;;4.27;4.13;;;18.70;99.90;;;;;;4955734;28;20493;-67
2021/06/12 01:58:30;;;;;;;4.70;4.50;;;18.70;99.90;;;;;;4956957;28;20511;-67
2021/06/12 02:00:58;;;;;;;5.13;4.73;;;18.70;99.90;;;;;;4955982;28;20464;-67
2021/06/12 02:03:25;;;;;;;4.70;4.40;;;18.70;99.90;;;;;;4937269;29;20477;-67
2021/06/12 02:05:54;;;;;;;4.20;4.00;;;18.70;99.90;;;;;;4936548;28;20493;-67
2021/06/12 02:08:22;;;;;;;4.77;4.40;;;18.70;99.90;;;;;;4956345;29;20468;-67
2021/06/12 02:10:50;;;;;;;5.40;5.00;;;18.70;99.90;;;;;;4941039;28;20465;-67
2021/06/12 02:13:17;;;;;;;5.00;4.60;;;18.70;99.90;;;;;;4939018;29;20461;-67
2021/06/12 02:15:45;;;;;;;4.50;4.30;;;18.60;99.90;;;;;;4953980;28;20505;-67
2021/06/12 02:18:12;;;;;;;5.13;4.83;;;18.60;99.90;;;;;;4945223;28;20466;-67
2021/06/12 02:20:40;;;;;;;4.70;4.40;;;18.60;99.90;;;;;;4936690;29;20489;-67
2021/06/12 02:23:09;;;;;;;4.60;4.40;;;18.60;99.90;;;;;;4942508;29;20465;-67
2021/06/12 02:25:36;;;;;;;4.50;4.30;;;18.60;99.90;;;;;;4937302;28;20536;-67
2021/06/12 02:28:06;;;;;;;4.50;4.13;;;18.60;99.90;;;;;;4946046;29;20461;-67
2021/06/12 02:30:36;;;;;;;5.43;5.13;;;18.60;99.90;;;;;;4956212;28;20460;-67
2021/06/12 02:33:06;;;;;;;5.07;4.77;;;18.70;99.90;;;;;;4946924;28;20462;-67
2021/06/12 02:38:55;;;;;;;5.10;4.67;;;18.70;99.90;;;;;;4947249;28;21010;-67
2021/06/12 02:41:22;;;;;;;4.70;4.47;;;18.70;99.90;;;;;;4956017;28;20468;-67
2021/06/12 02:43:48;;;;;;;4.93;4.63;;;18.70;99.90;;;;;;4941812;28;20465;-67
2021/06/12 02:46:20;;;;;;;4.97;4.67;;;18.60;99.90;;;;;;4936879;29;20493;-67
2021/06/12 02:48:52;;;;;;;5.33;5.03;;;18.60;99.90;;;;;;4948237;28;20531;-68
2021/06/12 02:51:18;;;;;;;5.67;5.27;;;18.60;99.90;;;;;;4956075;28;20469;-70
2021/06/12 02:53:45;;;;;;;5.47;5.07;;;18.60;99.90;;;;;;4943242;28;20470;-70
2021/06/12 02:56:15;;;;;;;5.77;5.37;;;18.60;99.90;;;;;;4936324;29;20909;-69
2021/06/12 02:58:43;;;;;;;6.07;5.67;;;18.60;99.90;;;;;;4947367;29;20456;-69
2021/06/12 03:01:10;;;;;;;6.13;5.83;;;18.60;99.90;;;;;;4955798;28;20849;-70
2021/06/12 03:03:37;;;;;;;5.90;5.60;;;18.60;99.90;;;;;;4945561;28;20756;-70
2021/06/12 03:06:05;;;;;;;5.80;5.30;;;18.60;99.90;;;;;;4935209;29;20844;-70
2021/06/12 03:08:36;;;;;;;6.30;5.90;;;18.60;99.90;;;;;;4944685;29;20461;-70
2021/06/12 03:11:04;;;;;;;5.63;5.13;;;18.60;99.90;;;;;;4949525;28;20513;-70
2021/06/12 03:13:32;;;;;;;6.60;6.00;;;18.60;99.90;;;;;;4935874;28;20482;-70
2021/06/12 03:16:01;;;;;;;6.33;6.03;;;18.60;99.90;;;;;;4940761;29;20491;-70
2021/06/12 03:18:28;;;;;;;5.67;5.37;;;18.60;99.90;;;;;;4955738;28;20852;-70
2021/06/12 03:20:55;;;;;;;6.37;5.97;;;18.60;99.90;;;;;;4950065;28;20486;-70
2021/06/12 03:23:22;;;;;;;5.83;5.43;;;18.60;99.90;;;;;;4935616;28;20860;-70
2021/06/12 03:25:50;;;;;;;5.97;5.57;;;18.60;99.90;;;;;;4938476;29;20544;-70
2021/06/12 03:28:16;;;;;;;5.53;5.13;;;18.60;99.90;;;;;;4955320;28;20469;-69
2021/06/12 03:30:43;;;;;;;5.80;5.40;;;18.60;99.90;;;;;;4953349;28;20921;-70
2021/06/12 03:33:10;;;;;;;6.20;5.80;;;18.60;99.90;;;;;;4935562;28;20478;-70
2021/06/12 03:35:37;;;;;;;6.83;6.23;;;18.60;99.90;;;;;;4934743;29;20493;-70
2021/06/12 03:38:04;;;;;;;6.80;6.40;;;18.60;99.90;;;;;;4935904;29;20469;-70
2021/06/12 03:40:31;;;;;;;7.80;7.07;;;18.60;99.90;;;;;;4935766;29;20493;-70
2021/06/12 03:42:57;;;;;;;7.07;6.53;;;18.60;99.90;;;;;;4953620;29;20472;-69
2021/06/12 03:45:24;;;;;;;6.60;6.20;;;18.70;99.90;;;;;;4954555;28;20822;-70
2021/06/12 03:47:53;;;;;;;7.23;6.83;;;18.60;99.90;;;;;;4937988;28;20486;-70
2021/06/12 03:50:21;;;;;;;8.10;7.50;;;18.60;99.90;;;;;;4934960;29;20777;-70
2021/06/12 03:52:49;;;;;;;7.70;7.20;;;18.70;99.90;;;;;;4951124;29;20460;-70
2021/06/12 03:55:17;;;;;;;8.47;7.80;;;18.60;99.90;;;;;;4941625;28;20489;-70
2021/06/12 03:57:43;;;;;;;9.07;8.27;;;18.70;99.90;;;;;;4935659;28;20481;-69
2021/06/12 04:00:11;;;;;;;8.80;7.90;;;18.70;99.90;;;;;;4946601;29;20489;-70
2021/06/12 04:02:38;;;;;;;8.73;8.00;;;18.70;99.90;;;;;;4950972;28;20468;-70
2021/06/12 04:05:07;;;;;;;8.30;7.60;;;18.70;99.90;;;;;;4943289;28;20481;-70
2021/06/12 04:07:33;;;;;;;9.10;8.30;;;18.80;99.90;;;;;;4935621;29;20466;-70
2021/06/12 04:09:59;;;;;;;8.63;7.87;;;18.80;99.90;;;;;;4944318;28;20483;-70
2021/06/12 04:12:25;;;;;;;9.57;8.67;;;18.80;99.90;;;;;;4954332;28;20946;-70
2021/06/12 04:14:51;;;;;;;9.00;8.20;;;18.80;99.90;;;;;;4946449;28;20498;-70
2021/06/12 04:17:17;;;;;;;8.13;7.47;;;18.90;99.90;;;;;;4939397;29;20953;-69
2021/06/12 04:19:44;;;;;;;8.53;7.90;;;18.90;99.90;;;;;;4953876;28;20488;-70
2021/06/12 04:22:12;;;;;;;9.00;8.30;;;18.90;99.90;;;;;;4954187;28;20535;-69
2021/06/12 04:24:38;;;;;;;8.53;7.87;;;18.90;99.90;;;;;;4954489;28;20464;-69
2021/06/12 04:27:05;;;;;;;9.50;8.70;;;18.90;99.90;;;;;;4953234;28;20461;-69
2021/06/12 04:29:31;;;;;;;9.90;9.00;;;18.90;99.90;;;;;;4935312;29;20848;-69
2021/06/12 04:31:57;;;;;;;9.20;8.37;;;18.90;99.90;;;;;;4934926;29;20883;-69
2021/06/12 04:34:24;;;;;;;9.97;9.10;;;18.90;99.90;;;;;;4935132;28;20492;-69
2021/06/12 04:36:50;;;;;;;11.00;9.93;;;19.00;99.90;;;;;;4954192;29;20468;-70
2021/06/12 04:39:17;;;;;;;10.50;9.40;;;19.00;99.90;;;;;;4936455;28;20533;-67
2021/06/12 04:41:44;;;;;;;12.27;10.80;;;19.10;99.90;;;;;;4936321;29;20518;-68
2021/06/12 04:44:10;;;;;;;12.47;11.17;;;19.00;99.90;;;;;;4934793;29;20871;-67
2021/06/12 04:46:37;;;;;;;13.07;11.77;;;19.10;99.90;;;;;;4952576;29;20484;-68
2021/06/12 04:49:03;;;;;;;15.30;12.80;;;19.10;99.90;;;;;;4953660;28;21311;-67
2021/06/12 04:51:29;;;;;;;13.37;11.97;;;19.10;99.90;;;;;;4938034;28;20473;-67
2021/06/12 04:53:55;;;;;;;14.13;12.70;;;19.10;99.90;;;;;;4952794;29;20495;-67
2021/06/12 04:56:23;;;;;;;15.80;13.50;;;19.00;99.90;;;;;;4952570;28;20495;-67
2021/06/12 04:58:49;;;;;;;15.60;14.00;;;19.00;99.90;;;;;;4952882;28;20465;-68
2021/06/12 05:01:15;;;;;;;13.93;12.40;;;19.00;99.90;;;;;;4934931;29;20474;-67
2021/06/12 05:03:41;;;;;;;16.53;13.37;;;19.10;99.90;;;;;;4935003;29;20540;-68
2021/06/12 05:06:07;;;;;;;16.53;14.07;;;19.00;99.90;;;;;;4935572;29;20493;-69
2021/06/12 05:08:33;;;;;;;14.70;13.20;;;19.00;99.90;;;;;;4935247;29;20466;-69
2021/06/12 05:10:59;;;;;;;15.20;13.80;;;19.00;99.90;;;;;;4951579;29;20472;-69
2021/06/12 05:13:27;;;;;;;15.40;13.80;;;19.00;99.90;;;;;;4953930;28;20516;-69
2021/06/12 05:15:53;;;;;;;16.33;14.57;;;19.10;99.90;;;;;;4951895;28;20618;-69
2021/06/12 05:18:21;;;;;;;16.37;14.77;;;19.10;99.90;;;;;;4954390;28;20835;-69
2021/06/12 05:20:47;;;;;;;19.70;16.13;;;19.00;99.90;;;;;;4938772;29;20489;-69
2021/06/12 05:23:13;;;;;;;15.33;13.90;;;19.10;99.90;;;;;;4935620;29;20461;-69
2021/06/12 05:25:40;;;;;;;19.27;14.07;;;19.10;99.90;;;;;;4934477;29;20504;-69
2021/06/12 05:28:06;;;;;;;14.73;13.20;;;19.10;99.90;;;;;;4937348;29;21008;-69
2021/06/12 05:30:33;;;;;;;17.93;15.30;;;19.10;99.90;;;;;;4956675;28;20471;-69
2021/06/12 05:32:59;;;;;;;16.07;13.77;;;19.10;99.90;;;;;;4955930;28;20523;-69
2021/06/12 05:35:25;;;;;;;15.87;14.17;;;19.10;99.90;;;;;;4937383;29;20830;-68
2021/06/12 05:37:52;;;;;;;16.70;14.43;;;19.20;99.90;;;;;;4937989;29;20505;-69
2021/06/12 05:40:18;;;;;;;18.13;16.30;;;19.10;99.90;;;;;;4938887;29;20486;-69
2021/06/12 05:42:44;;;;;;;20.20;15.03;;;19.20;99.90;;;;;;4938589;29;20532;-69
2021/06/12 05:45:11;;;;;;;17.77;15.87;;;19.20;99.90;;;;;;4955379;29;21052;-69
2021/06/12 05:47:38;;;;;;;18.80;16.40;;;19.20;99.90;;;;;;4958644;28;20464;-71
2021/06/12 05:50:06;;;;;;;20.00;16.90;;;19.20;99.90;;;;;;4940702;28;20871;-70
2021/06/12 05:52:32;;;;;;;21.63;16.63;;;19.20;99.90;;;;;;4938780;29;20475;-69
2021/06/12 05:54:58;;;;;;;19.27;16.50;;;19.20;99.90;;;;;;4939113;28;20501;-69
2021/06/12 05:57:24;;;;;;;18.43;15.73;;;19.20;99.90;;;;;;4940692;29;20462;-70
2021/06/12 05:59:50;;;;;;;18.87;16.87;;;19.20;99.90;;;;;;4948174;29;20484;-70
2021/06/12 06:02:17;;;;;;;19.83;16.73;;;19.20;99.90;;;;;;4954768;28;20878;-70
2021/06/12 06:04:44;;;;;;;18.40;16.33;;;19.30;99.90;;;;;;4956389;28;20491;-70
2021/06/12 06:07:10;;;;;;;19.17;16.50;;;19.30;99.90;;;;;;4957265;28;20953;-70
2021/06/12 06:09:36;;;;;;;17.37;15.53;;;19.30;99.90;;;;;;4956800;28;20461;-69
2021/06/12 06:12:03;;;;;;;18.77;16.13;;;19.30;99.90;;;;;;4956735;28;20838;-66
2021/06/12 06:14:29;;;;;;;21.27;16.50;;;19.30;99.90;;;;;;4956599;28;20523;-70
2021/06/12 06:16:55;;;;;;;18.40;15.43;;;19.30;99.90;;;;;;4957095;28;21023;-70
2021/06/12 06:19:21;;;;;;;21.50;17.10;;;19.30;99.90;;;;;;4956157;28;20500;-70
2021/06/12 06:21:48;;;;;;;18.73;16.00;;;19.40;99.90;;;;;;4956692;28;20460;-69
2021/06/12 06:24:14;;;;;;;18.00;15.40;;;19.40;99.90;;;;;;4956569;28;20957;-69
2021/06/12 06:26:41;;;;;;;19.37;16.27;;;19.50;99.90;;;;;;4940786;28;20481;-69
2021/06/12 06:29:07;;;;;;;17.77;15.90;;;19.50;99.90;;;;;;4937931;29;20466;-69
2021/06/12 06:31:33;;;;;;;17.57;15.87;;;19.50;99.90;;;;;;4953485;29;20469;-69
2021/06/12 06:33:59;;;;;;;18.77;14.13;;;19.50;99.90;;;;;;4955772;28;20540;-69
2021/06/12 06:36:26;;;;;;;22.23;15.40;;;19.60;99.90;;;;;;4956991;28;20497;-70
2021/06/12 06:38:53;;;;;;;17.87;15.73;;;19.50;99.90;;;;;;4956409;28;20468;-70
2021/06/12 06:41:19;;;;;;;17.83;15.93;;;19.50;99.90;;;;;;4954673;28;20492;-70
2021/06/12 06:43:45;;;;;;;17.43;15.63;;;19.50;99.90;;;;;;4948366;29;20488;-71
2021/06/12 06:46:12;;;;;;;15.70;14.07;;;19.60;99.90;;;;;;4955971;28;20524;-69
2021/06/12 06:48:38;;;;;;;17.73;14.87;;;19.70;99.90;;;;;;4956089;28;20464;-70
2021/06/12 06:51:05;;;;;;;16.43;14.50;;;19.80;99.90;;;;;;4952179;28;20462;-69
2021/06/12 06:53:33;;;;;;;20.70;15.40;;;19.80;99.90;;;;;;4951224;28;20532;-70
2021/06/12 06:56:00;;;;;;;16.80;14.90;;;19.80;99.90;;;;;;4955423;28;20493;-70
2021/06/12 06:58:27;;;;;;;19.33;15.77;;;19.80;99.90;;;;;;4955587;28;20485;-70
2021/06/12 07:00:53;;;;;;;15.50;14.00;;;19.90;99.90;;;;;;4955479;28;20531;-70
2021/06/12 07:03:19;;;;;;;17.20;13.90;;;20.00;99.90;;;;;;4955387;28;20527;-69
2021/06/12 07:05:45;;;;;;;14.90;13.40;;;20.10;99.90;;;;;;4954551;28;20496;-70
2021/06/12 07:08:11;;;;;;;14.93;13.33;;;20.20;99.90;;;;;;4955482;28;20476;-69
2021/06/12 07:10:38;;;;;;;13.83;12.37;;;20.30;99.90;;;;;;4955172;28;20552;-68
2021/06/12 07:13:05;;;;;;;15.67;14.07;;;20.30;99.90;;;;;;4954982;28;20519;-68
2021/06/12 07:15:32;;;;;;;18.00;14.53;;;20.40;99.90;;;;;;4954780;28;20493;-68
2021/06/12 07:17:58;;;;;;;16.00;14.40;;;20.30;99.90;;;;;;4955059;28;21010;-68
2021/06/12 07:20:24;;;;;;;15.20;13.67;;;20.50;99.90;;;;;;4954217;28;20488;-68
2021/06/12 07:22:51;;;;;;;16.43;14.87;;;20.60;99.90;;;;;;4952343;28;20472;-68
2021/06/12 07:25:17;;;;;;;14.13;12.77;;;20.80;99.90;;;;;;4935745;29;20486;-68
2021/06/12 07:27:43;;;;;;;13.90;12.40;;;21.00;99.90;;;;;;4935777;29;20473;-68
2021/06/12 07:30:12;;;;;;;11.63;10.53;;;21.10;99.90;;;;;;4935666;29;20465;-68
2021/06/12 07:32:38;;;;;;;11.33;10.13;;;21.20;99.90;;;;;;4935679;29;20472;-68
2021/06/12 07:35:05;;;;;;;11.43;10.43;;;21.30;99.90;;;;;;4934840;29;21010;-68
2021/06/12 07:37:31;;;;;;;12.47;11.27;;;21.20;99.90;;;;;;4935646;29;20492;-68
2021/06/12 07:39:57;;;;;;;12.43;11.20;;;21.20;99.90;;;;;;4935277;29;21016;-68
2021/06/12 07:42:23;;;;;;;13.00;11.90;;;21.20;99.90;;;;;;4935776;29;20473;-68
2021/06/12 07:44:50;;;;;;;12.13;10.80;;;21.20;99.90;;;;;;4936854;29;20489;-68
2021/06/12 07:47:17;;;;;;;13.53;12.23;;;21.10;99.90;;;;;;4936166;29;20521;-70
2021/06/12 07:49:43;;;;;;;12.07;11.03;;;21.10;99.90;;;;;;4934734;29;20517;-68
2021/06/12 07:52:10;;;;;;;11.67;10.57;;;21.10;99.90;;;;;;4934284;28;20465;-68
2021/06/12 07:54:36;;;;;;;12.20;11.10;;;21.20;99.90;;;;;;4935459;29;20461;-68
2021/06/12 07:57:02;;;;;;;11.40;10.40;;;21.10;99.90;;;;;;4935417;29;20942;-68
2021/06/12 07:59:28;;;;;;;11.67;10.43;;;21.00;99.90;;;;;;4935591;29;20486;-68
2021/06/12 08:01:54;;;;;;;12.57;11.40;;;20.90;99.90;;;;;;4941086;29;20464;-68
2021/06/12 08:04:22;;;;;;;13.30;12.10;;;20.80;99.90;;;;;;4953425;28;20524;-68
2021/06/12 08:06:48;;;;;;;12.47;11.47;;;20.70;99.90;;;;;;4954278;28;20475;-68
2021/06/12 08:09:14;;;;;;;13.60;12.30;;;20.70;99.90;;;;;;4954247;28;20473;-68
2021/06/12 08:11:40;;;;;;;14.13;12.93;;;20.70;99.90;;;;;;4954959;28;20468;-69
2021/06/12 08:14:06;;;;;;;15.53;12.93;;;20.70;99.90;;;;;;4953871;28;20461;-68
2021/06/12 08:16:33;;;;;;;14.70;13.40;;;20.60;99.90;;;;;;4954327;28;20496;-68
2021/06/12 08:18:59;;;;;;;16.13;14.63;;;20.60;99.90;;;;;;4953441;28;20475;-69
2021/06/12 08:21:26;;;;;;;16.20;14.60;;;20.60;99.90;;;;;;4954434;28;20537;-69
2021/06/12 08:23:53;;;;;;;13.93;12.83;;;20.60;99.90;;;;;;4953916;28;20464;-68
2021/06/12 08:26:19;;;;;;;17.40;15.80;;;20.60;99.90;;;;;;4954485;28;20488;-68
2021/06/12 08:28:46;;;;;;;18.80;17.00;;;20.50;99.90;;;;;;4954226;28;20468;-68
2021/06/12 08:31:12;;;;;;;21.20;19.10;;;20.40;99.90;;;;;;4954397;28;20552;-67
2021/06/12 08:33:39;;;;;;;19.03;17.20;;;20.30;99.90;;;;;;4954109;28;20485;-68
2021/06/12 08:36:05;;;;;;;23.30;17.57;;;20.10;99.90;;;;;;4953863;29;20488;-67
2021/06/12 08:38:33;;;;;;;21.03;17.53;;;19.80;99.90;;;;;;4954230;28;20476;-66
2021/06/12 08:40:59;;;;;;;17.70;15.90;;;19.30;99.90;;;;;;4953927;28;20568;-66
2021/06/12 08:43:27;;;;;;;19.07;16.47;;;19.00;99.90;;;;;;4953945;28;20464;-67
2021/06/12 08:45:54;;;;;;;13.43;12.13;;;18.70;99.90;;;;;;4953816;29;20904;-67
2021/06/12 08:48:22;;;;;;;14.60;12.50;;;18.40;99.90;;;;;;4953703;28;20476;-68
2021/06/12 08:50:49;;;;;;;12.73;11.43;;;18.30;99.90;;;;;;4951684;28;20464;-67
2021/06/12 08:53:15;;;;;;;12.30;11.20;;;18.30;99.90;;;;;;4935397;29;20470;-67
2021/06/12 08:55:43;;;;;;;12.70;11.60;;;18.30;99.90;;;;;;4935092;29;20485;-67
2021/06/12 08:58:10;;;;;;;15.33;13.07;;;18.50;99.90;;;;;;4935091;29;20973;-67
2021/06/12 09:00:36;;;;;;;13.20;12.00;;;18.70;99.90;;;;;;4934552;29;20493;-67
2021/06/12 09:03:17;;;;;;;13.37;12.20;;;18.90;99.90;;;;;;4935528;29;20477;-67
2021/06/12 09:05:49;;;;;;;13.60;12.50;;;19.00;99.90;;;;;;4937848;29;20503;-68
2021/06/12 09:08:17;;;;;;;13.33;12.03;;;19.10;99.90;;;;;;4938780;29;20638;-67
2021/06/12 09:10:46;;;;;;;14.97;13.57;;;19.10;99.90;;;;;;4938460;28;20529;-66
2021/06/12 09:13:12;;;;;;;14.33;13.00;;;19.10;99.90;;;;;;4938228;29;20465;-67
2021/06/12 09:15:39;;;;;;;15.93;12.80;;;19.10;99.90;;;;;;4937854;29;20497;-67
2021/06/12 09:18:05;;;;;;;16.50;14.20;;;19.00;99.90;;;;;;4938183;29;20946;-67
2021/06/12 09:20:45;;;;;;;15.27;13.77;;;19.00;99.90;;;;;;4937050;29;21010;-67
2021/06/12 09:23:15;;;;;;;16.37;13.30;;;18.90;99.90;;;;;;4941995;28;20476;-67
2021/06/12 09:25:43;;;;;;;14.53;13.03;;;18.90;99.90;;;;;;4957005;28;20488;-67
2021/06/12 09:28:11;;;;;;;13.30;12.20;;;18.80;99.90;;;;;;4957247;28;20467;-67
2021/06/12 09:30:37;;;;;;;11.70;10.70;;;18.80;99.90;;;;;;4956855;28;20464;-67
2021/06/12 09:33:04;;;;;;;11.70;10.80;;;18.70;99.90;;;;;;4956819;28;20475;-67
2021/06/12 09:35:32;;;;;;;11.40;10.60;;;18.70;99.90;;;;;;4955970;28;20484;-67
2021/06/12 09:37:59;;;;;;;13.17;11.87;;;18.70;99.90;;;;;;4956788;28;20491;-67
2021/06/12 09:40:31;;;;;;;11.27;10.37;;;18.80;99.90;;;;;;4956455;28;20563;-67
2021/06/12 09:42:58;;;;;;;13.00;11.70;;;18.80;99.90;;;;;;4956845;28;20468;-67
2021/06/12 09:45:28;;;;;;;13.03;11.97;;;18.90;99.90;;;;;;4956168;28;20493;-67
2021/06/12 09:48:08;;;;;;;14.17;12.97;;;19.10;99.90;;;;;;4956687;28;20590;-67
2021/06/12 09:50:34;;;;;;;13.00;11.90;;;19.50;99.90;;;;;;4956319;28;21016;-67
2021/06/12 09:53:11;;;;;;;12.90;11.90;;;19.50;99.90;;;;;;4956153;28;20475;-67
2021/06/12 09:55:37;;;;;;;11.80;10.90;;;19.60;99.90;;;;;;4956380;28;20550;-67
2021/06/12 09:58:04;;;;;;;11.07;10.00;;;19.60;99.90;;;;;;4956514;28;20471;-67
2021/06/12 10:00:35;;;;;;;10.83;9.10;;;19.50;99.90;;;;;;4956106;28;21001;-67
2021/06/12 10:03:02;;;;;;;9.30;8.60;;;19.30;99.90;;;;;;4956284;28;20706;-67
2021/06/12 10:05:28;;;;;;;9.10;8.40;;;19.10;99.90;;;;;;4955053;28;20989;-67
2021/06/12 10:07:55;;;;;;;9.97;9.17;;;19.00;99.90;;;;;;4956496;28;20893;-67
2021/06/12 10:10:22;;;;;;;9.83;9.07;;;18.90;99.90;;;;;;4956225;28;20465;-67
2021/06/12 10:12:48;;;;;;;8.83;8.10;;;18.90;99.90;;;;;;4948606;28;20520;-67
2021/06/12 10:15:16;;;;;;;10.67;9.53;;;19.10;99.90;;;;;;4936219;29;20496;-67
2021/06/12 10:17:47;;;;;;;9.13;8.40;;;19.30;99.90;;;;;;4938084;29;20935;-67
2021/06/12 10:20:15;;;;;;;9.17;8.23;;;19.60;99.90;;;;;;4936752;29;20501;-67
2021/06/12 10:22:43;;;;;;;8.57;7.70;;;19.90;99.90;;;;;;4936525;29;20537;-68
2021/06/12 10:25:10;;;;;;;5.43;5.03;;;20.10;99.90;;;;;;4936319;28;20504;-67
2021/06/12 10:27:39;;;;;;;5.90;5.60;;;20.10;99.90;;;;;;4936905;29;20465;-67
2021/06/12 10:30:06;;;;;;;6.73;5.10;;;20.30;99.90;;;;;;4936543;29;20550;-67
2021/06/12 10:32:33;;;;;;;6.20;5.90;;;20.60;99.90;;;;;;4936296;29;20833;-67
2021/06/12 10:35:03;;;;;;;6.23;5.33;;;20.70;99.90;;;;;;4935777;29;20557;-67
2021/06/12 10:37:30;;;;;;;6.33;6.03;;;20.80;99.90;;;;;;4936905;29;20461;-67
2021/06/12 10:40:04;;;;;;;5.80;5.27;;;20.90;99.90;;;;;;4936338;28;20982;-67
2021/06/12 10:42:31;;;;;;;4.97;4.57;;;20.90;99.90;;;;;;4936542;29;20579;-68
2021/06/12 10:44:57;;;;;;;4.40;4.00;;;20.90;99.90;;;;;;4936350;29;20496;-68
2021/06/12 10:47:40;;;;;;;4.80;4.50;;;21.20;99.90;;;;;;4936593;29;20958;-67
2021/06/12 10:50:34;;;;;;;4.03;3.73;;;21.50;99.90;;;;;;4935813;29;20461;-67
2021/06/12 10:53:21;;;;;;;4.17;3.57;;;21.50;99.90;;;;;;4954994;28;20543;-67
2021/06/12 10:55:49;;;;;;;7.47;3.83;;;21.50;99.90;;;;;;4955294;28;20551;-67
2021/06/12 10:58:41;;;;;;;3.70;3.40;;;21.50;99.90;;;;;;4955552;28;20469;-67
2021/06/12 11:01:16;;;;;;;4.47;3.47;;;21.50;99.90;;;;;;4955382;28;20642;-67
2021/06/12 11:03:56;;;;;;;3.83;3.53;;;21.50;99.90;;;;;;4954509;28;20472;-68
2021/06/12 11:06:40;;;;;;;3.47;3.17;;;21.50;99.90;;;;;;4955981;28;20476;-67
2021/06/12 11:09:30;;;;;;;4.07;3.30;;;21.60;99.90;;;;;;4955131;28;20469;-67
2021/06/12 11:11:57;;;;;;;3.80;3.50;;;21.40;99.90;;;;;;4955065;28;20468;-68
2021/06/12 11:14:32;;;;;;;3.00;2.80;;;21.20;99.90;;;;;;4954609;28;20523;-67
2021/06/12 11:17:18;;;;;;;3.37;3.07;;;20.90;99.90;;;;;;4955147;28;20515;-68
2021/06/12 11:19:47;;;;;;;3.13;2.90;;;20.70;99.90;;;;;;4954061;28;20551;-69
2021/06/12 11:22:26;;;;;;;3.30;3.07;;;20.50;99.90;;;;;;4954969;28;20464;-69
2021/06/12 11:24:56;;;;;;;2.60;2.40;;;20.60;99.90;;;;;;4955102;28;20492;-68
2021/06/12 11:27:23;;;;;;;2.70;2.50;;;20.70;99.90;;;;;;4954244;28;20473;-66
2021/06/12 11:30:10;;;;;;;4.80;2.70;;;20.70;99.90;;;;;;4955177;28;20844;-67
2021/06/12 11:32:36;;;;;;;2.33;2.13;;;20.60;99.90;;;;;;4954567;28;20473;-67
2021/06/12 11:35:03;;;;;;;2.23;2.10;;;20.50;99.90;;;;;;4953803;28;20888;-67
2021/06/12 11:37:30;;;;;;;2.97;1.97;;;20.60;99.90;;;;;;4954797;28;20500;-67
2021/06/12 11:39:58;;;;;;;4.33;2.33;;;20.80;99.90;;;;;;4954110;28;20547;-67
2021/06/12 11:42:40;;;;;;;2.23;2.00;;;20.80;99.90;;;;;;4949321;28;20489;-67
2021/06/12 11:45:14;;;;;;;2.50;1.83;;;21.00;99.90;;;;;;4954341;28;20485;-67
2021/06/12 11:47:40;;;;;;;2.20;2.10;;;21.10;99.90;;;;;;4954549;28;21058;-66
2021/06/12 11:50:07;;;;;;;1.80;1.77;;;20.90;99.90;;;;;;4953911;28;20467;-68
2021/06/12 11:52:39;;;;;;;2.20;2.00;;;21.00;99.90;;;;;;4954295;28;20468;-68
2021/06/12 11:55:14;;;;;;;6.90;2.23;;;21.00;99.90;;;;;;4954168;28;20495;-67
2021/06/12 11:57:42;;;;;;;2.70;2.57;;;21.30;99.90;;;;;;4954344;28;20503;-68
2021/06/12 12:00:27;;;;;;;2.47;1.70;;;21.40;99.90;;;;;;4954285;28;20488;-68
2021/06/12 12:03:01;;;;;;;2.27;2.07;;;21.70;99.90;;;;;;4954166;28;20460;-69
2021/06/12 12:05:36;;;;;;;1.77;1.67;;;21.90;99.90;;;;;;4953565;28;20506;-69
2021/06/12 12:08:07;;;;;;;2.23;2.10;;;22.00;99.90;;;;;;4954160;28;20802;-68
2021/06/12 12:10:34;;;;;;;2.17;1.90;;;21.70;99.90;;;;;;4954043;28;20523;-68
2021/06/12 12:13:00;;;;;;;2.53;2.00;;;21.60;99.90;;;;;;4945226;28;20466;-68
2021/06/12 12:15:41;;;;;;;2.47;2.37;;;21.40;99.90;;;;;;4934552;29;20989;-68
2021/06/12 12:18:09;;;;;;;2.23;2.17;;;21.30;99.90;;;;;;4935187;29;20457;-67
2021/06/12 12:20:37;;;;;;;2.20;2.10;;;21.10;99.90;;;;;;4934148;29;20494;-67
2021/06/12 12:23:18;;;;;;;2.73;2.10;;;20.90;99.90;;;;;;4934882;29;20469;-67
2021/06/12 12:25:44;;;;;;;2.50;2.40;;;20.70;99.90;;;;;;4934560;28;20877;-68
2021/06/12 12:28:13;;;;;;;1.80;1.80;;;20.40;99.90;;;;;;4934980;29;20465;-68
2021/06/12 12:30:41;;;;;;;2.23;2.13;;;20.20;99.90;;;;;;4934732;29;20461;-67
2021/06/12 12:33:09;;;;;;;4.00;2.30;;;20.20;99.90;;;;;;4934827;29;20516;-67
2021/06/12 12:35:35;;;;;;;2.20;2.20;;;20.20;99.90;;;;;;4933967;29;20485;-69
2021/06/12 12:38:16;;;;;;;2.60;2.50;;;20.20;99.90;;;;;;4936071;29;20478;-68
2021/06/12 12:40:44;;;;;;;2.67;2.20;;;20.30;99.90;;;;;;4938340;29;20489;-67
2021/06/12 12:43:11;;;;;;;2.50;2.17;;;20.50;99.90;;;;;;4938570;29;20462;-68
2021/06/12 12:45:40;;;;;;;2.70;2.33;;;20.70;99.90;;;;;;4938410;28;20552;-67
2021/06/12 12:48:07;;;;;;;1.97;1.97;;;20.70;99.90;;;;;;4938568;29;20792;-68